sensor_id;sensor_type;location;lat;lon;timestamp;P1;durP1;ratioP1;P2;durP2;ratioP2
1020;SDS011;499;42.648;23.270;2023-03-24T00:01:57;2.87;;;2.67;;
1020;SDS011;499;42.648;23.270;2023-03-24T00:04:25;2.17;;;1.93;;
1020;SDS011;499;42.648;23.270;2023-03-24T00:06:52;4.30;;;3.00;;
1020;SDS011;499;42.648;23.270;2023-03-24T00:09:20;1.90;;;1.70;;
1020;SDS011;499;42.648;23.270;2023-03-24T00:11:47;2.10;;;2.00;;
1020;SDS011;499;42.648;23.270;2023-03-24T00:14:14;2.23;;;2.03;;
1020;SDS011;499;42.648;23.270;2023-03-24T00:16:42;2.13;;;1.93;;
1020;SDS011;499;42.648;23.270;2023-03-24T00:19:11;2.50;;;2.20;;
1020;SDS011;499;42.648;23.270;2023-03-24T00:21:39;2.30;;;2.10;;
1020;SDS011;499;42.648;23.270;2023-03-24T00:24:07;3.17;;;2.23;;
1020;SDS011;499;42.648;23.270;2023-03-24T00:26:37;1.20;;;1.10;;
1020;SDS011;499;42.648;23.270;2023-03-24T00:29:06;2.50;;;2.30;;
1020;SDS011;499;42.648;23.270;2023-03-24T00:31:35;2.80;;;2.50;;
1020;SDS011;499;42.648;23.270;2023-03-24T00:34:03;3.07;;;2.60;;
1020;SDS011;499;42.648;23.270;2023-03-24T00:36:32;2.83;;;1.97;;
1020;SDS011;499;42.648;23.270;2023-03-24T00:39:00;3.10;;;2.10;;
1020;SDS011;499;42.648;23.270;2023-03-24T00:41:27;5.00;;;2.97;;
1020;SDS011;499;42.648;23.270;2023-03-24T00:43:57;2.70;;;2.50;;
1020;SDS011;499;42.648;23.270;2023-03-24T00:46:27;2.90;;;1.17;;
1020;SDS011;499;42.648;23.270;2023-03-24T00:48:55;3.50;;;2.90;;
1020;SDS011;499;42.648;23.270;2023-03-24T00:51:26;3.53;;;3.23;;
1020;SDS011;499;42.648;23.270;2023-03-24T00:53:55;2.53;;;2.17;;
1020;SDS011;499;42.648;23.270;2023-03-24T00:56:23;2.53;;;1.87;;
1020;SDS011;499;42.648;23.270;2023-03-24T00:58:51;0.83;;;0.80;;
1020;SDS011;499;42.648;23.270;2023-03-24T01:01:23;1.67;;;1.57;;
1020;SDS011;499;42.648;23.270;2023-03-24T01:03:53;2.93;;;2.70;;
1020;SDS011;499;42.648;23.270;2023-03-24T01:06:21;2.87;;;2.57;;
1020;SDS011;499;42.648;23.270;2023-03-24T01:08:48;2.00;;;1.73;;
1020;SDS011;499;42.648;23.270;2023-03-24T01:11:18;4.13;;;3.03;;
1020;SDS011;499;42.648;23.270;2023-03-24T01:13:46;3.57;;;2.93;;
1020;SDS011;499;42.648;23.270;2023-03-24T01:16:14;1.00;;;0.90;;
1020;SDS011;499;42.648;23.270;2023-03-24T01:18:42;2.23;;;2.03;;
1020;SDS011;499;42.648;23.270;2023-03-24T01:21:10;2.73;;;2.00;;
1020;SDS011;499;42.648;23.270;2023-03-24T01:23:38;2.67;;;2.47;;
1020;SDS011;499;42.648;23.270;2023-03-24T01:26:08;2.03;;;1.83;;
1020;SDS011;499;42.648;23.270;2023-03-24T01:28:36;1.57;;;0.97;;
1020;SDS011;499;42.648;23.270;2023-03-24T01:31:05;1.00;;;0.90;;
1020;SDS011;499;42.648;23.270;2023-03-24T01:33:33;3.43;;;3.13;;
1020;SDS011;499;42.648;23.270;2023-03-24T01:36:02;1.20;;;1.10;;
1020;SDS011;499;42.648;23.270;2023-03-24T01:38:29;1.20;;;1.10;;
1020;SDS011;499;42.648;23.270;2023-03-24T01:40:56;2.07;;;1.90;;
1020;SDS011;499;42.648;23.270;2023-03-24T01:43:25;2.90;;;2.57;;
1020;SDS011;499;42.648;23.270;2023-03-24T01:46:00;2.70;;;2.20;;
1020;SDS011;499;42.648;23.270;2023-03-24T01:48:34;3.30;;;2.80;;
1020;SDS011;499;42.648;23.270;2023-03-24T01:51:05;1.30;;;1.20;;
1020;SDS011;499;42.648;23.270;2023-03-24T01:53:36;0.80;;;0.80;;
1020;SDS011;499;42.648;23.270;2023-03-24T01:56:06;1.47;;;1.27;;
1020;SDS011;499;42.648;23.270;2023-03-24T01:58:35;3.93;;;2.60;;
1020;SDS011;499;42.648;23.270;2023-03-24T02:01:05;2.17;;;1.57;;
1020;SDS011;499;42.648;23.270;2023-03-24T02:03:33;0.80;;;0.70;;
1020;SDS011;499;42.648;23.270;2023-03-24T02:06:06;4.30;;;3.50;;
1020;SDS011;499;42.648;23.270;2023-03-24T02:08:35;2.67;;;2.47;;
1020;SDS011;499;42.648;23.270;2023-03-24T02:11:06;2.30;;;2.10;;
1020;SDS011;499;42.648;23.270;2023-03-24T02:13:35;0.90;;;0.80;;
1020;SDS011;499;42.648;23.270;2023-03-24T02:16:07;2.70;;;2.50;;
1020;SDS011;499;42.648;23.270;2023-03-24T02:18:45;3.63;;;3.33;;
1020;SDS011;499;42.648;23.270;2023-03-24T02:33:46;2.90;;;2.57;;
1020;SDS011;499;42.648;23.270;2023-03-24T02:39:52;3.00;;;2.77;;
1020;SDS011;499;42.648;23.270;2023-03-24T02:42:32;3.37;;;3.07;;
1020;SDS011;499;42.648;23.270;2023-03-24T02:45:11;1.93;;;1.77;;
1020;SDS011;499;42.648;23.270;2023-03-24T02:47:50;2.43;;;2.13;;
1020;SDS011;499;42.648;23.270;2023-03-24T02:50:33;1.20;;;1.10;;
1020;SDS011;499;42.648;23.270;2023-03-24T02:53:07;3.30;;;3.00;;
1020;SDS011;499;42.648;23.270;2023-03-24T02:55:41;3.17;;;2.80;;
1020;SDS011;499;42.648;23.270;2023-03-24T02:58:12;2.40;;;2.20;;
1020;SDS011;499;42.648;23.270;2023-03-24T03:00:45;4.70;;;2.97;;
1020;SDS011;499;42.648;23.270;2023-03-24T03:03:17;4.10;;;2.70;;
1020;SDS011;499;42.648;23.270;2023-03-24T03:05:47;3.30;;;2.80;;
1020;SDS011;499;42.648;23.270;2023-03-24T03:08:18;7.97;;;2.70;;
1020;SDS011;499;42.648;23.270;2023-03-24T03:10:49;2.23;;;2.00;;
1020;SDS011;499;42.648;23.270;2023-03-24T03:13:19;3.50;;;3.20;;
1020;SDS011;499;42.648;23.270;2023-03-24T03:15:50;3.27;;;2.97;;
1020;SDS011;499;42.648;23.270;2023-03-24T03:18:21;3.07;;;2.83;;
1020;SDS011;499;42.648;23.270;2023-03-24T03:20:54;3.10;;;2.87;;
1020;SDS011;499;42.648;23.270;2023-03-24T03:23:25;2.87;;;2.07;;
1020;SDS011;499;42.648;23.270;2023-03-24T03:25:59;2.30;;;2.10;;
1020;SDS011;499;42.648;23.270;2023-03-24T03:28:30;3.87;;;3.57;;
1020;SDS011;499;42.648;23.270;2023-03-24T03:31:00;4.23;;;2.47;;
1020;SDS011;499;42.648;23.270;2023-03-24T03:33:33;2.93;;;2.63;;
1020;SDS011;499;42.648;23.270;2023-03-24T03:36:06;3.50;;;2.40;;
1020;SDS011;499;42.648;23.270;2023-03-24T03:38:41;3.07;;;2.20;;
1020;SDS011;499;42.648;23.270;2023-03-24T03:41:16;3.53;;;3.23;;
1020;SDS011;499;42.648;23.270;2023-03-24T03:43:44;3.37;;;3.07;;
1020;SDS011;499;42.648;23.270;2023-03-24T03:46:13;2.73;;;2.50;;
1020;SDS011;499;42.648;23.270;2023-03-24T03:48:41;2.50;;;2.30;;
1020;SDS011;499;42.648;23.270;2023-03-24T03:51:10;2.93;;;2.60;;
1020;SDS011;499;42.648;23.270;2023-03-24T03:53:39;0.80;;;0.70;;
1020;SDS011;499;42.648;23.270;2023-03-24T03:56:10;2.63;;;2.43;;
1020;SDS011;499;42.648;23.270;2023-03-24T03:58:38;2.47;;;2.03;;
1020;SDS011;499;42.648;23.270;2023-03-24T04:01:06;2.40;;;2.20;;
1020;SDS011;499;42.648;23.270;2023-03-24T04:03:46;2.63;;;2.43;;
1020;SDS011;499;42.648;23.270;2023-03-24T04:06:24;4.20;;;3.10;;
1020;SDS011;499;42.648;23.270;2023-03-24T04:09:01;7.40;;;6.70;;
1020;SDS011;499;42.648;23.270;2023-03-24T04:11:38;6.70;;;4.73;;
1020;SDS011;499;42.648;23.270;2023-03-24T04:14:21;4.90;;;4.40;;
1020;SDS011;499;42.648;23.270;2023-03-24T04:17:12;5.00;;;3.60;;
1020;SDS011;499;42.648;23.270;2023-03-24T04:19:53;3.30;;;2.33;;
1020;SDS011;499;42.648;23.270;2023-03-24T04:22:31;2.90;;;2.60;;
1020;SDS011;499;42.648;23.270;2023-03-24T04:25:10;2.93;;;2.73;;
1020;SDS011;499;42.648;23.270;2023-03-24T04:27:44;3.40;;;2.93;;
1020;SDS011;499;42.648;23.270;2023-03-24T04:30:29;4.97;;;3.87;;
1020;SDS011;499;42.648;23.270;2023-03-24T04:33:02;3.03;;;2.77;;
1020;SDS011;499;42.648;23.270;2023-03-24T04:35:33;3.00;;;2.70;;
1020;SDS011;499;42.648;23.270;2023-03-24T04:38:05;4.57;;;2.60;;
1020;SDS011;499;42.648;23.270;2023-03-24T04:40:36;2.87;;;2.27;;
1020;SDS011;499;42.648;23.270;2023-03-24T04:43:06;3.30;;;2.63;;
1020;SDS011;499;42.648;23.270;2023-03-24T04:45:39;2.73;;;2.53;;
1020;SDS011;499;42.648;23.270;2023-03-24T04:48:06;2.93;;;2.70;;
1020;SDS011;499;42.648;23.270;2023-03-24T04:50:36;2.70;;;2.20;;
1020;SDS011;499;42.648;23.270;2023-03-24T04:53:05;2.60;;;2.40;;
1020;SDS011;499;42.648;23.270;2023-03-24T04:55:38;3.33;;;3.03;;
1020;SDS011;499;42.648;23.270;2023-03-24T04:58:23;3.20;;;2.93;;
1020;SDS011;499;42.648;23.270;2023-03-24T05:00:52;3.43;;;3.13;;
1020;SDS011;499;42.648;23.270;2023-03-24T05:03:21;2.53;;;2.33;;
1020;SDS011;499;42.648;23.270;2023-03-24T05:05:48;3.53;;;2.60;;
1020;SDS011;499;42.648;23.270;2023-03-24T05:08:16;3.13;;;2.83;;
1020;SDS011;499;42.648;23.270;2023-03-24T05:10:45;5.30;;;3.50;;
1020;SDS011;499;42.648;23.270;2023-03-24T05:13:12;4.67;;;4.27;;
1020;SDS011;499;42.648;23.270;2023-03-24T05:15:40;4.20;;;3.73;;
1020;SDS011;499;42.648;23.270;2023-03-24T05:18:08;5.20;;;4.70;;
1020;SDS011;499;42.648;23.270;2023-03-24T05:20:35;6.10;;;5.50;;
1020;SDS011;499;42.648;23.270;2023-03-24T05:23:02;7.13;;;5.40;;
1020;SDS011;499;42.648;23.270;2023-03-24T05:25:29;5.77;;;5.27;;
1020;SDS011;499;42.648;23.270;2023-03-24T05:27:57;7.90;;;6.43;;
1020;SDS011;499;42.648;23.270;2023-03-24T05:30:24;8.03;;;6.67;;
1020;SDS011;499;42.648;23.270;2023-03-24T05:32:51;9.10;;;7.17;;
1020;SDS011;499;42.648;23.270;2023-03-24T05:35:19;5.53;;;4.97;;
1020;SDS011;499;42.648;23.270;2023-03-24T05:37:47;5.47;;;4.97;;
1020;SDS011;499;42.648;23.270;2023-03-24T05:40:14;8.33;;;6.50;;
1020;SDS011;499;42.648;23.270;2023-03-24T05:42:41;6.87;;;6.10;;
1020;SDS011;499;42.648;23.270;2023-03-24T05:45:09;6.80;;;6.10;;
1020;SDS011;499;42.648;23.270;2023-03-24T05:47:36;6.00;;;5.20;;
1020;SDS011;499;42.648;23.270;2023-03-24T05:50:04;5.50;;;4.67;;
1020;SDS011;499;42.648;23.270;2023-03-24T05:52:33;7.03;;;5.80;;
1020;SDS011;499;42.648;23.270;2023-03-24T05:55:00;8.03;;;5.60;;
1020;SDS011;499;42.648;23.270;2023-03-24T05:57:28;6.07;;;5.30;;
1020;SDS011;499;42.648;23.270;2023-03-24T05:59:55;10.60;;;8.60;;
1020;SDS011;499;42.648;23.270;2023-03-24T06:02:22;7.07;;;5.47;;
1020;SDS011;499;42.648;23.270;2023-03-24T06:04:49;6.47;;;5.80;;
1020;SDS011;499;42.648;23.270;2023-03-24T06:07:17;6.63;;;5.50;;
1020;SDS011;499;42.648;23.270;2023-03-24T06:09:46;8.70;;;6.13;;
1020;SDS011;499;42.648;23.270;2023-03-24T06:12:16;5.10;;;4.00;;
1020;SDS011;499;42.648;23.270;2023-03-24T06:14:45;7.00;;;6.27;;
1020;SDS011;499;42.648;23.270;2023-03-24T06:17:13;9.90;;;6.77;;
1020;SDS011;499;42.648;23.270;2023-03-24T06:19:40;7.90;;;6.83;;
1020;SDS011;499;42.648;23.270;2023-03-24T06:22:14;6.43;;;4.90;;
1020;SDS011;499;42.648;23.270;2023-03-24T06:24:42;5.93;;;5.33;;
1020;SDS011;499;42.648;23.270;2023-03-24T06:27:10;6.93;;;6.23;;
1020;SDS011;499;42.648;23.270;2023-03-24T06:29:38;5.77;;;5.10;;
1020;SDS011;499;42.648;23.270;2023-03-24T06:32:06;6.23;;;5.07;;
1020;SDS011;499;42.648;23.270;2023-03-24T06:34:33;8.70;;;7.57;;
1020;SDS011;499;42.648;23.270;2023-03-24T06:37:01;6.20;;;4.90;;
1020;SDS011;499;42.648;23.270;2023-03-24T06:39:28;6.97;;;6.30;;
1020;SDS011;499;42.648;23.270;2023-03-24T06:41:55;11.60;;;8.70;;
1020;SDS011;499;42.648;23.270;2023-03-24T06:44:24;8.10;;;4.33;;
1020;SDS011;499;42.648;23.270;2023-03-24T06:46:51;7.70;;;6.83;;
1020;SDS011;499;42.648;23.270;2023-03-24T06:49:18;7.77;;;6.27;;
1020;SDS011;499;42.648;23.270;2023-03-24T06:51:45;7.50;;;6.80;;
1020;SDS011;499;42.648;23.270;2023-03-24T06:54:14;8.23;;;7.43;;
1020;SDS011;499;42.648;23.270;2023-03-24T06:56:42;8.93;;;6.57;;
1020;SDS011;499;42.648;23.270;2023-03-24T06:59:09;6.93;;;5.63;;
1020;SDS011;499;42.648;23.270;2023-03-24T07:01:38;7.07;;;4.93;;
1020;SDS011;499;42.648;23.270;2023-03-24T07:04:05;5.47;;;4.70;;
1020;SDS011;499;42.648;23.270;2023-03-24T07:06:32;6.97;;;5.37;;
1020;SDS011;499;42.648;23.270;2023-03-24T07:08:59;6.50;;;5.37;;
1020;SDS011;499;42.648;23.270;2023-03-24T07:11:26;7.20;;;5.83;;
1020;SDS011;499;42.648;23.270;2023-03-24T07:13:53;7.40;;;6.47;;
1020;SDS011;499;42.648;23.270;2023-03-24T07:16:21;7.33;;;6.57;;
1020;SDS011;499;42.648;23.270;2023-03-24T07:18:49;7.70;;;6.90;;
1020;SDS011;499;42.648;23.270;2023-03-24T07:21:16;11.30;;;6.97;;
1020;SDS011;499;42.648;23.270;2023-03-24T07:23:43;7.93;;;6.17;;
1020;SDS011;499;42.648;23.270;2023-03-24T07:26:10;7.17;;;6.57;;
1020;SDS011;499;42.648;23.270;2023-03-24T07:28:37;7.27;;;6.57;;
1020;SDS011;499;42.648;23.270;2023-03-24T07:31:05;6.53;;;5.83;;
1020;SDS011;499;42.648;23.270;2023-03-24T07:33:34;6.37;;;5.43;;
1020;SDS011;499;42.648;23.270;2023-03-24T07:36:04;6.60;;;5.17;;
1020;SDS011;499;42.648;23.270;2023-03-24T07:38:32;7.60;;;6.83;;
1020;SDS011;499;42.648;23.270;2023-03-24T07:40:59;8.00;;;6.13;;
1020;SDS011;499;42.648;23.270;2023-03-24T07:43:26;7.03;;;6.33;;
1020;SDS011;499;42.648;23.270;2023-03-24T07:45:53;6.00;;;5.10;;
1020;SDS011;499;42.648;23.270;2023-03-24T07:48:20;6.07;;;5.47;;
1020;SDS011;499;42.648;23.270;2023-03-24T07:50:48;7.50;;;6.00;;
1020;SDS011;499;42.648;23.270;2023-03-24T07:53:16;6.53;;;5.37;;
1020;SDS011;499;42.648;23.270;2023-03-24T07:55:44;7.90;;;5.40;;
1020;SDS011;499;42.648;23.270;2023-03-24T07:58:11;8.43;;;6.10;;
1020;SDS011;499;42.648;23.270;2023-03-24T08:00:38;7.53;;;5.20;;
1020;SDS011;499;42.648;23.270;2023-03-24T08:03:07;7.70;;;6.00;;
1020;SDS011;499;42.648;23.270;2023-03-24T08:05:38;6.93;;;5.80;;
1020;SDS011;499;42.648;23.270;2023-03-24T08:08:06;7.23;;;5.03;;
1020;SDS011;499;42.648;23.270;2023-03-24T08:10:34;6.80;;;5.70;;
1020;SDS011;499;42.648;23.270;2023-03-24T08:13:02;7.03;;;5.03;;
1020;SDS011;499;42.648;23.270;2023-03-24T08:15:29;6.67;;;4.83;;
1020;SDS011;499;42.648;23.270;2023-03-24T08:17:56;5.93;;;5.40;;
1020;SDS011;499;42.648;23.270;2023-03-24T08:20:23;7.47;;;5.40;;
1020;SDS011;499;42.648;23.270;2023-03-24T08:22:51;8.23;;;4.13;;
1020;SDS011;499;42.648;23.270;2023-03-24T08:25:19;7.97;;;5.20;;
1020;SDS011;499;42.648;23.270;2023-03-24T08:27:48;5.03;;;4.50;;
1020;SDS011;499;42.648;23.270;2023-03-24T08:30:17;9.60;;;5.40;;
1020;SDS011;499;42.648;23.270;2023-03-24T08:32:45;6.50;;;5.70;;
1020;SDS011;499;42.648;23.270;2023-03-24T08:35:15;6.77;;;4.70;;
1020;SDS011;499;42.648;23.270;2023-03-24T08:37:44;6.53;;;5.30;;
1020;SDS011;499;42.648;23.270;2023-03-24T08:40:11;4.70;;;3.97;;
1020;SDS011;499;42.648;23.270;2023-03-24T08:42:43;5.37;;;4.87;;
1020;SDS011;499;42.648;23.270;2023-03-24T08:45:14;6.60;;;4.80;;
1020;SDS011;499;42.648;23.270;2023-03-24T08:47:44;5.90;;;3.90;;
1020;SDS011;499;42.648;23.270;2023-03-24T08:50:12;8.30;;;6.10;;
1020;SDS011;499;42.648;23.270;2023-03-24T08:52:39;6.77;;;4.37;;
1020;SDS011;499;42.648;23.270;2023-03-24T08:55:07;4.77;;;3.47;;
1020;SDS011;499;42.648;23.270;2023-03-24T08:57:35;5.93;;;4.13;;
1020;SDS011;499;42.648;23.270;2023-03-24T09:00:02;5.00;;;4.53;;
1020;SDS011;499;42.648;23.270;2023-03-24T09:02:39;6.90;;;4.80;;
1020;SDS011;499;42.648;23.270;2023-03-24T09:05:06;4.50;;;4.10;;
1020;SDS011;499;42.648;23.270;2023-03-24T09:07:33;7.00;;;3.87;;
1020;SDS011;499;42.648;23.270;2023-03-24T09:10:00;6.03;;;5.47;;
1020;SDS011;499;42.648;23.270;2023-03-24T09:12:27;6.57;;;3.23;;
1020;SDS011;499;42.648;23.270;2023-03-24T09:14:54;6.03;;;4.63;;
1020;SDS011;499;42.648;23.270;2023-03-24T09:17:21;5.83;;;4.20;;
1020;SDS011;499;42.648;23.270;2023-03-24T09:19:50;6.50;;;5.90;;
1020;SDS011;499;42.648;23.270;2023-03-24T09:22:17;5.90;;;3.97;;
1020;SDS011;499;42.648;23.270;2023-03-24T09:24:44;4.70;;;2.77;;
1020;SDS011;499;42.648;23.270;2023-03-24T09:27:13;6.67;;;4.33;;
1020;SDS011;499;42.648;23.270;2023-03-24T09:29:40;4.00;;;2.97;;
1020;SDS011;499;42.648;23.270;2023-03-24T09:32:07;4.40;;;3.00;;
1020;SDS011;499;42.648;23.270;2023-03-24T09:34:35;5.67;;;2.90;;
1020;SDS011;499;42.648;23.270;2023-03-24T09:37:03;4.77;;;3.90;;
1020;SDS011;499;42.648;23.270;2023-03-24T09:39:31;5.83;;;3.60;;
1020;SDS011;499;42.648;23.270;2023-03-24T09:42:00;5.47;;;4.33;;
1020;SDS011;499;42.648;23.270;2023-03-24T09:44:29;3.60;;;2.87;;
1020;SDS011;499;42.648;23.270;2023-03-24T09:46:59;9.70;;;4.67;;
1020;SDS011;499;42.648;23.270;2023-03-24T09:49:29;6.90;;;3.60;;
1020;SDS011;499;42.648;23.270;2023-03-24T09:52:01;6.60;;;3.93;;
1020;SDS011;499;42.648;23.270;2023-03-24T09:54:35;6.13;;;3.83;;
1020;SDS011;499;42.648;23.270;2023-03-24T09:57:09;5.37;;;3.83;;
1020;SDS011;499;42.648;23.270;2023-03-24T09:59:42;7.40;;;3.50;;
1020;SDS011;499;42.648;23.270;2023-03-24T10:02:10;5.60;;;4.27;;
1020;SDS011;499;42.648;23.270;2023-03-24T10:04:39;3.03;;;2.60;;
1020;SDS011;499;42.648;23.270;2023-03-24T10:07:08;5.57;;;3.93;;
1020;SDS011;499;42.648;23.270;2023-03-24T10:09:42;2.93;;;2.30;;
1020;SDS011;499;42.648;23.270;2023-03-24T10:12:16;3.80;;;2.47;;
1020;SDS011;499;42.648;23.270;2023-03-24T10:14:54;3.20;;;2.60;;
1020;SDS011;499;42.648;23.270;2023-03-24T10:17:28;4.30;;;2.70;;
1020;SDS011;499;42.648;23.270;2023-03-24T10:20:02;3.33;;;2.47;;
1020;SDS011;499;42.648;23.270;2023-03-24T10:22:37;5.43;;;3.40;;
1020;SDS011;499;42.648;23.270;2023-03-24T10:25:12;3.80;;;3.10;;
1020;SDS011;499;42.648;23.270;2023-03-24T10:27:45;4.03;;;3.50;;
1020;SDS011;499;42.648;23.270;2023-03-24T10:30:17;2.80;;;1.83;;
1020;SDS011;499;42.648;23.270;2023-03-24T10:32:47;3.30;;;2.20;;
1020;SDS011;499;42.648;23.270;2023-03-24T10:35:15;5.50;;;3.03;;
1020;SDS011;499;42.648;23.270;2023-03-24T10:37:48;3.27;;;2.03;;
1020;SDS011;499;42.648;23.270;2023-03-24T10:40:17;4.50;;;2.37;;
1020;SDS011;499;42.648;23.270;2023-03-24T10:42:48;3.60;;;2.30;;
1020;SDS011;499;42.648;23.270;2023-03-24T10:45:18;3.30;;;2.87;;
1020;SDS011;499;42.648;23.270;2023-03-24T10:47:52;4.53;;;2.80;;
1020;SDS011;499;42.648;23.270;2023-03-24T10:50:23;2.90;;;2.70;;
1020;SDS011;499;42.648;23.270;2023-03-24T10:52:52;3.70;;;2.27;;
1020;SDS011;499;42.648;23.270;2023-03-24T10:55:21;4.50;;;3.60;;
1020;SDS011;499;42.648;23.270;2023-03-24T10:57:56;4.10;;;3.10;;
1020;SDS011;499;42.648;23.270;2023-03-24T11:00:26;3.57;;;2.50;;
1020;SDS011;499;42.648;23.270;2023-03-24T11:02:56;3.83;;;2.50;;
1020;SDS011;499;42.648;23.270;2023-03-24T11:05:26;3.20;;;2.50;;
1020;SDS011;499;42.648;23.270;2023-03-24T11:10:46;3.63;;;2.87;;
1020;SDS011;499;42.648;23.270;2023-03-24T11:13:15;3.60;;;2.47;;
1020;SDS011;499;42.648;23.270;2023-03-24T11:15:54;4.07;;;2.90;;
1020;SDS011;499;42.648;23.270;2023-03-24T11:18:22;2.23;;;1.83;;
1020;SDS011;499;42.648;23.270;2023-03-24T11:20:51;3.30;;;2.30;;
1020;SDS011;499;42.648;23.270;2023-03-24T11:23:25;3.70;;;2.47;;
1020;SDS011;499;42.648;23.270;2023-03-24T11:26:04;2.90;;;1.70;;
1020;SDS011;499;42.648;23.270;2023-03-24T11:28:35;4.10;;;2.57;;
1020;SDS011;499;42.648;23.270;2023-03-24T11:31:06;2.90;;;1.90;;
1020;SDS011;499;42.648;23.270;2023-03-24T11:33:40;2.57;;;1.90;;
1020;SDS011;499;42.648;23.270;2023-03-24T11:39:08;4.07;;;2.50;;
1020;SDS011;499;42.648;23.270;2023-03-24T11:41:37;2.80;;;1.70;;
1020;SDS011;499;42.648;23.270;2023-03-24T11:44:13;2.83;;;2.03;;
1020;SDS011;499;42.648;23.270;2023-03-24T11:46:43;2.73;;;1.73;;
1020;SDS011;499;42.648;23.270;2023-03-24T11:49:11;2.90;;;2.40;;
1020;SDS011;499;42.648;23.270;2023-03-24T11:51:41;4.17;;;1.67;;
1020;SDS011;499;42.648;23.270;2023-03-24T11:54:14;4.00;;;2.27;;
1020;SDS011;499;42.648;23.270;2023-03-24T11:56:44;3.07;;;2.03;;
1020;SDS011;499;42.648;23.270;2023-03-24T11:59:17;3.00;;;1.97;;
1020;SDS011;499;42.648;23.270;2023-03-24T12:01:52;3.10;;;1.87;;
1020;SDS011;499;42.648;23.270;2023-03-24T12:04:28;2.43;;;1.80;;
1020;SDS011;499;42.648;23.270;2023-03-24T12:07:26;2.50;;;1.60;;
1020;SDS011;499;42.648;23.270;2023-03-24T12:10:18;1.93;;;1.43;;
1020;SDS011;499;42.648;23.270;2023-03-24T12:12:54;2.60;;;2.17;;
1020;SDS011;499;42.648;23.270;2023-03-24T12:15:30;2.73;;;1.43;;
1020;SDS011;499;42.648;23.270;2023-03-24T12:18:15;1.57;;;1.07;;
1020;SDS011;499;42.648;23.270;2023-03-24T12:21:15;2.67;;;2.10;;
1020;SDS011;499;42.648;23.270;2023-03-24T12:23:52;2.23;;;1.50;;
1020;SDS011;499;42.648;23.270;2023-03-24T12:26:25;2.30;;;1.40;;
1020;SDS011;499;42.648;23.270;2023-03-24T12:28:55;3.03;;;1.67;;
1020;SDS011;499;42.648;23.270;2023-03-24T12:34:30;2.60;;;2.00;;
1020;SDS011;499;42.648;23.270;2023-03-24T12:37:12;2.93;;;1.87;;
1020;SDS011;499;42.648;23.270;2023-03-24T12:39:49;2.73;;;1.80;;
1020;SDS011;499;42.648;23.270;2023-03-24T12:42:28;2.80;;;1.60;;
1020;SDS011;499;42.648;23.270;2023-03-24T12:48:03;6.43;;;1.80;;
1020;SDS011;499;42.648;23.270;2023-03-24T12:50:41;3.20;;;1.37;;
1020;SDS011;499;42.648;23.270;2023-03-24T12:53:28;1.70;;;1.20;;
1020;SDS011;499;42.648;23.270;2023-03-24T12:56:07;3.27;;;1.90;;
1020;SDS011;499;42.648;23.270;2023-03-24T12:58:42;2.03;;;1.43;;
1020;SDS011;499;42.648;23.270;2023-03-24T13:01:15;1.90;;;1.70;;
1020;SDS011;499;42.648;23.270;2023-03-24T13:03:48;2.80;;;2.50;;
1020;SDS011;499;42.648;23.270;2023-03-24T13:06:21;3.30;;;1.77;;
1020;SDS011;499;42.648;23.270;2023-03-24T13:11:52;2.30;;;1.70;;
1020;SDS011;499;42.648;23.270;2023-03-24T13:14:26;2.43;;;2.03;;
1020;SDS011;499;42.648;23.270;2023-03-24T13:16:59;3.20;;;1.80;;
1020;SDS011;499;42.648;23.270;2023-03-24T13:19:31;2.57;;;1.87;;
1020;SDS011;499;42.648;23.270;2023-03-24T13:22:01;1.77;;;1.40;;
1020;SDS011;499;42.648;23.270;2023-03-24T13:24:31;4.40;;;1.40;;
1020;SDS011;499;42.648;23.270;2023-03-24T13:27:01;2.67;;;1.80;;
1020;SDS011;499;42.648;23.270;2023-03-24T13:29:51;2.17;;;1.53;;
1020;SDS011;499;42.648;23.270;2023-03-24T13:32:37;3.80;;;3.50;;
1020;SDS011;499;42.648;23.270;2023-03-24T13:35:11;3.10;;;2.40;;
1020;SDS011;499;42.648;23.270;2023-03-24T13:37:45;1.40;;;1.10;;
1020;SDS011;499;42.648;23.270;2023-03-24T13:40:18;2.33;;;1.27;;
1020;SDS011;499;42.648;23.270;2023-03-24T13:42:50;2.13;;;1.30;;
1020;SDS011;499;42.648;23.270;2023-03-24T13:45:25;2.03;;;1.13;;
1020;SDS011;499;42.648;23.270;2023-03-24T13:48:04;1.60;;;1.10;;
1020;SDS011;499;42.648;23.270;2023-03-24T13:50:47;1.40;;;1.00;;
1020;SDS011;499;42.648;23.270;2023-03-24T13:53:22;2.50;;;2.20;;
1020;SDS011;499;42.648;23.270;2023-03-24T13:55:55;1.80;;;1.10;;
1020;SDS011;499;42.648;23.270;2023-03-24T13:58:23;1.50;;;1.10;;
1020;SDS011;499;42.648;23.270;2023-03-24T14:01:11;1.60;;;1.00;;
1020;SDS011;499;42.648;23.270;2023-03-24T14:06:47;2.13;;;0.80;;
1020;SDS011;499;42.648;23.270;2023-03-24T14:09:16;2.73;;;1.63;;
1020;SDS011;499;42.648;23.270;2023-03-24T14:17:40;1.77;;;1.37;;
1020;SDS011;499;42.648;23.270;2023-03-24T14:20:11;1.80;;;1.30;;
1020;SDS011;499;42.648;23.270;2023-03-24T14:22:52;2.03;;;1.50;;
1020;SDS011;499;42.648;23.270;2023-03-24T14:25:23;4.50;;;2.30;;
1020;SDS011;499;42.648;23.270;2023-03-24T14:27:53;1.90;;;1.40;;
1020;SDS011;499;42.648;23.270;2023-03-24T14:30:33;2.70;;;1.10;;
1020;SDS011;499;42.648;23.270;2023-03-24T14:33:12;4.93;;;1.40;;
1020;SDS011;499;42.648;23.270;2023-03-24T14:35:50;1.27;;;0.83;;
1020;SDS011;499;42.648;23.270;2023-03-24T14:38:29;1.60;;;1.10;;
1020;SDS011;499;42.648;23.270;2023-03-24T14:41:04;2.70;;;1.60;;
1020;SDS011;499;42.648;23.270;2023-03-24T14:46:33;2.40;;;1.27;;
1020;SDS011;499;42.648;23.270;2023-03-24T14:49:12;2.03;;;1.40;;
1020;SDS011;499;42.648;23.270;2023-03-24T14:51:44;2.73;;;1.40;;
1020;SDS011;499;42.648;23.270;2023-03-24T14:54:27;1.40;;;1.10;;
1020;SDS011;499;42.648;23.270;2023-03-24T14:56:59;3.03;;;2.10;;
1020;SDS011;499;42.648;23.270;2023-03-24T14:59:30;2.50;;;1.90;;
1020;SDS011;499;42.648;23.270;2023-03-24T15:02:03;2.23;;;0.80;;
1020;SDS011;499;42.648;23.270;2023-03-24T15:04:40;1.97;;;1.33;;
1020;SDS011;499;42.648;23.270;2023-03-24T15:07:24;1.97;;;1.10;;
1020;SDS011;499;42.648;23.270;2023-03-24T15:09:51;2.60;;;1.80;;
1020;SDS011;499;42.648;23.270;2023-03-24T15:12:18;3.73;;;1.63;;
1020;SDS011;499;42.648;23.270;2023-03-24T15:14:46;1.80;;;1.17;;
1020;SDS011;499;42.648;23.270;2023-03-24T15:17:15;1.67;;;1.30;;
1020;SDS011;499;42.648;23.270;2023-03-24T15:19:49;2.20;;;1.47;;
1020;SDS011;499;42.648;23.270;2023-03-24T15:22:18;4.00;;;2.03;;
1020;SDS011;499;42.648;23.270;2023-03-24T15:24:46;2.40;;;2.00;;
1020;SDS011;499;42.648;23.270;2023-03-24T15:29:58;2.03;;;1.10;;
1020;SDS011;499;42.648;23.270;2023-03-24T15:32:26;1.60;;;1.30;;
1020;SDS011;499;42.648;23.270;2023-03-24T15:34:58;2.90;;;1.93;;
1020;SDS011;499;42.648;23.270;2023-03-24T15:37:30;3.00;;;1.47;;
1020;SDS011;499;42.648;23.270;2023-03-24T15:39:58;2.03;;;1.20;;
1020;SDS011;499;42.648;23.270;2023-03-24T15:42:26;1.97;;;1.70;;
1020;SDS011;499;42.648;23.270;2023-03-24T15:44:53;3.30;;;1.50;;
1020;SDS011;499;42.648;23.270;2023-03-24T15:47:21;2.97;;;1.33;;
1020;SDS011;499;42.648;23.270;2023-03-24T15:49:50;2.40;;;1.50;;
1020;SDS011;499;42.648;23.270;2023-03-24T15:52:24;1.33;;;0.97;;
1020;SDS011;499;42.648;23.270;2023-03-24T15:54:54;1.63;;;1.53;;
1020;SDS011;499;42.648;23.270;2023-03-24T15:57:23;2.40;;;1.70;;
1020;SDS011;499;42.648;23.270;2023-03-24T15:59:55;2.33;;;1.70;;
1020;SDS011;499;42.648;23.270;2023-03-24T16:02:34;1.93;;;1.40;;
1020;SDS011;499;42.648;23.270;2023-03-24T16:05:14;2.13;;;1.60;;
1020;SDS011;499;42.648;23.270;2023-03-24T16:07:53;1.87;;;1.33;;
1020;SDS011;499;42.648;23.270;2023-03-24T16:10:30;2.37;;;1.43;;
1020;SDS011;499;42.648;23.270;2023-03-24T16:13:07;1.70;;;1.37;;
1020;SDS011;499;42.648;23.270;2023-03-24T16:15:39;2.70;;;2.07;;
1020;SDS011;499;42.648;23.270;2023-03-24T16:18:09;1.87;;;1.53;;
1020;SDS011;499;42.648;23.270;2023-03-24T16:20:40;1.90;;;1.47;;
1020;SDS011;499;42.648;23.270;2023-03-24T16:23:08;2.53;;;1.77;;
1020;SDS011;499;42.648;23.270;2023-03-24T16:25:36;2.50;;;1.60;;